Latest Coastal Weather Observations for Avalon

IDV60701

Issued at 9:41 am EDT Saturday 20 December 2014 (issued every 10 minutes, with the page automatically refreshed every 10 minutes)

About coastal observations | Map of coastal stations | Coastal observations for VIC | Marine services | Other Formats
Station Details ID: 087113 Name: AVALON AIRPORT Lat: -38.03 Lon: 144.48 Height: 10.6 m
Data from the previous 72 hours. | See also: Recent months at Avalon
Date/Time
EDT
Temp

°C
Wind Pressure Rain
since 9am
mm
Weather Cloud Vis
km
Sea
Height
m
Swell
Dir
 
Speed
knots
Gust
knots
hPa Trend Height
m
Period
s
Dir
20/09:30am 16.8 WSW 9 13 1019.6 - 0.0 - Cloudy 10 - - - -
20/09:00am 16.6 W 9 13 1019.5 - 0.0 - Mostly clear 10 - - - -
20/08:30am 15.6 W 9 12 1019.1 - 0.0 - - 10 - - - -
20/08:00am 14.4 W 7 9 1018.9 - 0.0 - - 10 - - - -
20/07:30am 13.1 W 6 7 1018.6 - 0.0 - - 10 - - - -
20/07:00am 11.5 WNW 5 7 1018.4 - 0.0 - - 10 - - - -
20/06:30am 10.1 NW 6 7 1018.2 - 0.0 - - 10 - - - -
20/06:00am 9.6 NW 5 6 1018.0 - 0.0 - - 10 - - - -
20/05:30am 9.6 NW 6 7 1018.0 - 0.0 - - 10 - - - -
20/05:00am 9.8 NW 6 7 1017.8 - 0.0 - - 10 - - - -
20/04:30am 9.8 NW 7 8 1017.8 - 0.0 - - 10 - - - -
20/04:00am 9.2 NW 6 7 1018.0 - 0.0 - - 10 - - - -
20/03:30am 9.9 NW 6 7 1018.0 - 0.0 - - 10 - - - -
20/03:00am 9.8 NW 6 7 1018.2 - 0.0 - - 10 - - - -
20/02:30am 10.4 NW 7 8 1018.3 - 0.0 - - 10 - - - -
20/02:00am 10.3 NW 6 7 1018.7 - 0.0 - - 10 - - - -
20/01:30am 10.1 NW 6 6 1018.9 - 0.0 - - 10 - - - -
20/01:00am 9.8 NNW 6 6 1019.1 - 0.0 - - 10 - - - -
20/12:30am 11.8 WNW 6 7 1019.5 - 0.0 - - 10 - - - -
20/12:00am 12.2 WNW 6 8 1019.7 - 0.0 - - 10 - - - -
 
Date/Time
EDT
Temp

°C
Wind Pressure Rain
since 9am
mm
Weather Cloud Vis
km
Sea
Height
m
Swell
Dir
 
Speed
knots
Gust
knots
hPa Trend Height
m
Period
s
Dir
19/11:30pm 12.2 W 8 8 1020.0 - 0.0 - - 10 - - - -
19/11:00pm 13.6 WSW 8 9 1020.1 - 0.0 - - 10 - - - -
19/10:30pm 12.7 SSW 7 8 1020.1 - 0.0 - - 10 - - - -
19/10:00pm 13.5 SSW 8 9 1019.9 - 0.0 - - 10 - - - -
19/09:30pm 14.5 S 11 13 1019.7 - 0.0 - - 10 - - - -
19/09:00pm 15.0 S 9 14 1019.7 - 0.0 - Partly cloudy 10 - - - -
19/08:30pm 15.6 S 9 13 1019.7 - 0.0 - Partly cloudy 10 - - - -
19/08:00pm 16.5 S 10 13 1019.5 - 0.0 - Partly cloudy 10 - - - -
19/07:30pm 16.6 S 12 15 1019.2 - 0.0 - Partly cloudy 10 - - - -
19/07:00pm 16.7 S 12 16 1018.7 - 0.0 - Partly cloudy 10 - - - -
19/06:30pm 17.7 S 12 18 1018.4 - 0.0 - - 10 - - - -
19/06:00pm 18.2 S 13 19 1018.1 - 0.0 - Mostly clear 10 - - - -
19/05:30pm 18.4 S 14 19 1018.0 - 0.0 - Partly cloudy 10 - - - -
19/05:00pm 19.1 S 14 19 1018.0 - 0.0 - Partly cloudy 10 - - - -
19/04:30pm 19.0 S 11 16 1017.8 - 0.0 - - 10 - - - -
19/04:00pm 19.5 S 11 16 1017.7 - 0.0 - Partly cloudy 10 - - - -
19/03:30pm 19.4 S 11 18 1017.6 - 0.0 - Partly cloudy 10 - - - -
19/03:00pm 18.4 SSW 11 16 1017.8 - 0.0 - Mostly cloudy 10 - - - -
19/02:30pm 18.3 S 9 18 1017.6 - 0.0 - Partly cloudy 10 - - - -
19/02:00pm 18.2 S 14 19 1017.8 - 0.0 - Partly cloudy 10 - - - -
19/01:30pm 18.8 S 10 15 1017.6 - 0.0 - Cloudy 10 - - - -
19/01:00pm 17.7 S 10 14 1017.8 - 0.0 - Partly cloudy 10 - - - -
19/12:30pm 18.2 SSW 10 16 1017.8 - 0.0 - Cloudy 10 - - - -
19/12:00pm 18.1 SW 11 15 1017.7 - 0.0 - Cloudy 10 - - - -
19/11:30am 16.7 SW 13 21 1017.7 - 0.0 - Partly cloudy 10 - - - -
19/11:00am 16.6 SSW 11 17 1017.5 - 0.0 - Partly cloudy 10 - - - -
19/10:30am 16.9 WSW 11 16 1017.5 - 0.0 - Partly cloudy 10 - - - -
19/10:00am 15.9 WSW 13 18 1017.4 - 0.0 - Partly cloudy 10 - - - -
19/09:30am 16.2 WSW 12 19 1017.2 - 0.0 - Partly cloudy 10 - - - -
19/09:00am 15.3 WSW 12 16 1017.1 - 2.0 - Mostly cloudy 10 - - - -
19/08:30am 14.1 W 11 16 1016.7 - 2.0 - Partly cloudy 10 - - - -
19/08:00am 13.3 W 11 14 1016.5 - 2.0 - - 10 - - - -
19/07:30am 12.0 W 10 13 1016.0 - 2.0 - Partly cloudy 10 - - - -
19/07:00am 11.4 WNW 10 12 1015.8 - 2.0 - Partly cloudy 10 - - - -
19/06:30am 10.1 WNW 8 10 1015.6 - 2.0 - - 10 - - - -
19/06:00am 9.9 WNW 8 10 1015.3 - 2.0 - - 10 - - - -
19/05:30am 10.1 W 9 11 1015.0 - 2.0 - - 10 - - - -
19/05:00am 10.1 W 8 10 1014.7 - 2.0 - Partly cloudy 10 - - - -
19/04:30am 9.9 WNW 9 11 1014.2 - 2.0 - - 10 - - - -
19/04:00am 9.7 WNW 8 10 1014.0 - 2.0 - - 10 - - - -
19/03:30am 9.8 WNW 8 9 1013.8 - 2.0 - - 10 - - - -
19/03:00am 9.4 WNW 4 5 1013.9 - 2.0 - Mostly clear 10 - - - -
19/02:30am 10.3 NW 5 7 1013.8 - 2.0 - Partly cloudy 10 - - - -
19/02:00am 10.4 WNW 7 8 1013.8 - 2.0 - Partly cloudy 10 - - - -
19/01:30am 10.5 WNW 7 9 1013.7 - 2.0 - - 10 - - - -
19/01:00am 10.5 WNW 7 8 1013.7 - 2.0 - - 10 - - - -
19/12:30am 10.5 NW 6 7 1013.8 - 2.0 - - 10 - - - -
19/12:00am 11.3 NW 6 8 1013.7 - 2.0 - - 10 - - - -
 
Date/Time
EDT
Temp

°C
Wind Pressure Rain
since 9am
mm
Weather Cloud Vis
km
Sea
Height
m
Swell
Dir
 
Speed
knots
Gust
knots
hPa Trend Height
m
Period
s
Dir
18/11:30pm 11.5 W 6 8 1013.5 - 2.0 - - 10 - - - -
18/11:00pm 12.2 W 9 11 1013.5 - 2.0 - Partly cloudy 10 - - - -
18/10:30pm 12.8 W 7 11 1013.4 - 2.0 - Partly cloudy 10 - - - -
18/10:00pm 13.9 WSW 9 10 1013.1 - 2.0 - - 10 - - - -
18/09:30pm 14.9 WSW 12 16 1012.5 - 2.0 - Partly cloudy 10 - - - -
18/09:00pm 15.6 SW 10 14 1012.1 - 2.0 - Cloudy 10 - - - -
18/08:30pm 16.3 SW 11 14 1011.5 - 2.0 - Cloudy 10 - - - -
18/08:00pm 16.5 SW 11 16 1011.2 - 2.0 - Partly cloudy 10 - - - -
18/07:30pm 17.3 SW 11 14 1010.6 - 2.0 - Partly cloudy 10 - - - -
18/07:00pm 16.7 WSW 12 16 1010.1 - 2.0 - Partly cloudy 10 - - - -
18/06:30pm 16.4 WSW 7 10 1009.6 - 2.0 - Partly cloudy 10 - - - -
18/06:00pm 16.1 WSW 12 16 1009.2 - 2.0 - Mostly cloudy 10 - - - -
18/05:30pm 16.6 WSW 10 16 1008.6 - 2.0 - Partly cloudy 10 - - - -
18/05:00pm 15.7 WNW 11 15 1008.6 - 2.0 - Partly cloudy 10 - - - -
18/04:30pm 15.1 W 14 19 1008.7 - 1.6 - Partly cloudy 10 - - - -
18/04:00pm 13.9 WNW 15 18 1008.4 - 1.0 - Partly cloudy 10 - - - -
18/03:30pm 14.0 W 19 27 1007.8 - 0.0 - Partly cloudy 10 - - - -
18/03:00pm 15.9 WSW 29 39 1007.1 - 0.0 Showers Cloudy 10 - - - -
18/02:42pm 17.1 W 24 42 1006.3 - 0.0 - Partly cloudy 10 - - - -
18/02:41pm 17.3 W 22 42 1006.4 - 0.0 - Partly cloudy 10 - - - -
18/02:39pm 22.3 WNW 20 30 1005.8 - 0.0 - Partly cloudy 10 - - - -
18/02:30pm 23.1 WNW 19 25 1005.3 - 0.0 - Partly cloudy 10 - - - -
18/02:00pm 23.1 W 20 26 1005.2 - 0.0 - Partly cloudy 10 - - - -
18/01:30pm 22.8 W 16 23 1005.3 - 0.0 - Cloudy 10 - - - -
18/01:01pm 23.2 W 15 25 1005.6 - 0.0 - Partly cloudy 10 - - - -
18/01:00pm 23.7 W 13 23 1005.5 - 0.0 - Partly cloudy 10 - - - -
18/12:30pm 22.2 WNW 17 24 1005.9 - 0.0 - Partly cloudy 10 - - - -
18/12:00pm 21.6 W 17 24 1006.1 - 0.0 - Cloudy 10 - - - -
18/11:30am 22.2 W 17 24 1006.0 - 0.0 - Partly cloudy 10 - - - -
18/11:25am 22.5 WNW 16 26 1005.9 - 0.0 - Partly cloudy 10 - - - -
18/11:00am 22.2 W 21 28 1006.0 - 0.0 - Partly cloudy 10 - - - -
18/10:50am 22.1 WNW 18 28 1005.9 - 0.0 - - 10 - - - -
18/10:30am 22.1 WNW 19 25 1005.8 - 0.0 - - 10 - - - -
18/10:00am 21.1 WNW 18 26 1005.9 - 0.0 - - 10 - - - -
18/09:30am 20.4 WNW 16 24 1005.8 - 0.0 - - 10 - - - -
18/09:00am 19.5 WNW 11 15 1005.8 - 0.0 - - 10 - - - -
18/08:30am 18.2 NNW 9 12 1005.6 - 0.0 - - 10 - - - -
18/08:00am 15.6 N 5 6 1005.7 - 0.0 - - 10 - - - -
18/07:30am 13.1 NNW 4 5 1005.5 - 0.0 - - 10 - - - -
18/07:00am 10.8 NW 6 7 1005.7 - 0.0 - - 10 - - - -
18/06:30am 9.0 NW 6 7 1005.3 - 0.0 - - 10 - - - -
18/06:00am 8.3 NW 5 7 1005.4 - 0.0 - - 10 - - - -
18/05:30am 9.0 WNW 7 8 1005.6 - 0.0 - - 10 - - - -
18/05:00am 9.0 WNW 5 6 1005.3 - 0.0 - - 10 - - - -
18/04:30am 9.0 NW 5 6 1005.2 - 0.0 - - 10 - - - -
18/04:00am 8.7 WNW 5 6 1005.4 - 0.0 - - 10 - - - -
18/03:30am 9.0 WNW 5 7 1005.6 - 0.0 - - 10 - - - -
18/03:00am 9.5 NW 5 6 1005.6 - 0.0 - - 10 - - - -
18/02:30am 9.8 WNW 5 6 1006.1 - 0.0 - - 10 - - - -
18/02:00am 9.4 WNW 4 5 1006.3 - 0.0 - - 10 - - - -
18/01:30am 10.6 NW 3 4 1006.4 - 0.0 - - 10 - - - -
18/01:00am 9.9 NW 4 4 1006.9 - 0.0 - - 10 - - - -
18/12:30am 12.6 ENE 4 5 1007.2 - 0.0 - - 10 - - - -
18/12:00am 11.3 SSE 5 7 1007.5 - 0.0 - - 10 - - - -
 
Date/Time
EDT
Temp

°C
Wind Pressure Rain
since 9am
mm
Weather Cloud Vis
km
Sea
Height
m
Swell
Dir
 
Speed
knots
Gust
knots
hPa Trend Height
m
Period
s
Dir
17/11:30pm 11.8 SSE 6 7 1007.8 - 0.0 - - 10 - - - -
17/11:00pm 12.2 SE 5 6 1008.4 - 0.0 - - 10 - - - -
17/10:30pm 12.3 SSE 6 7 1008.4 - 0.0 - - 10 - - - -
17/10:00pm 13.0 SSE 7 9 1008.3 - 0.0 - - 10 - - - -
17/09:30pm 13.5 SSE 8 9 1008.6 - 0.0 - - 10 - - - -
17/09:00pm 14.1 SSE 9 11 1008.5 - 0.0 - - 10 - - - -
17/08:30pm 15.0 SSE 8 11 1008.5 - 0.0 - - 10 - - - -
17/08:00pm 16.2 SSE 12 16 1008.2 - 0.0 - - 10 - - - -
17/07:30pm 17.0 SSE 13 17 1008.0 - 0.0 - - 10 - - - -
17/07:00pm 17.6 S 14 18 1007.8 - 0.0 - - 10 - - - -
17/06:30pm 18.5 SSE 13 16 1007.7 - 0.0 - - 10 - - - -
17/06:00pm 19.1 SSE 11 16 1007.7 - 0.0 - - 10 - - - -
17/05:30pm 18.6 SSE 13 18 1007.7 - 0.0 - - 10 - - - -
17/05:00pm 19.0 SSE 13 18 1007.8 - 0.0 - Partly cloudy 10 - - - -
17/04:30pm 19.2 SSE 13 17 1008.1 - 0.0 - Partly cloudy 10 - - - -
17/04:00pm 19.4 ESE 14 18 1008.0 - 0.0 - Partly cloudy 10 - - - -
17/03:30pm 19.2 ESE 15 20 1008.1 - 0.0 - Partly cloudy 10 - - - -
17/03:00pm 19.1 SE 14 19 1008.3 - 0.0 - Partly cloudy 10 - - - -
17/02:30pm 19.4 NNW 6 15 1008.3 - 0.0 - Partly cloudy 10 - - - -
17/02:00pm 19.8 SW 8 14 1008.4 - 0.0 - Partly cloudy 10 - - - -
17/01:30pm 19.4 SW 9 15 1008.7 - 0.0 - Partly cloudy 10 - - - -
17/01:00pm 19.5 WSW 7 13 1009.0 - 0.0 - Partly cloudy 10 - - - -
17/12:30pm 19.1 W 7 11 1009.1 - 0.0 - Partly cloudy 10 - - - -
17/12:00pm 18.4 WSW 7 14 1009.2 - 0.0 - Cloudy 10 - - - -
17/11:30am 17.8 W 8 13 1009.2 - 0.0 - Cloudy 10 - - - -
17/11:00am 17.7 WSW 9 16 1009.1 - 0.0 - Partly cloudy 10 - - - -
17/10:30am 16.7 WSW 8 13 1009.1 - 0.0 - Partly cloudy 10 - - - -
17/10:00am 17.0 WSW 11 14 1009.3 - 0.0 - Partly cloudy 10 - - - -

Other Formats:

Comma delimited format used in spreadsheet applications
http://www.bom.gov.au/fwo/IDV60701/IDV60701.94854.axf

JavaScript Object Notation format (JSON) in row-major order
http://www.bom.gov.au/fwo/IDV60701/IDV60701.94854.json